createdAt,value
2024-03-11T00:00:19.511Z,29.43
2024-03-11T00:02:46.844Z,30.10
2024-03-11T00:05:14.858Z,29.23
2024-03-11T00:07:42.794Z,28.90
2024-03-11T00:10:13.804Z,30.33
2024-03-11T00:12:50.527Z,28.53
2024-03-11T00:15:21.511Z,32.27
2024-03-11T00:17:48.841Z,32.10
2024-03-11T00:20:15.765Z,32.50
2024-03-11T00:22:42.644Z,31.70
2024-03-11T00:25:10.636Z,31.67
2024-03-11T00:27:37.853Z,30.80
2024-03-11T00:30:07.673Z,29.73
2024-03-11T00:32:34.422Z,31.20
2024-03-11T00:35:02.232Z,32.33
2024-03-11T00:37:28.959Z,32.80
2024-03-11T00:39:55.764Z,31.50
2024-03-11T00:42:23.617Z,33.07
2024-03-11T00:44:51.600Z,32.27
2024-03-11T00:47:24.909Z,33.97
2024-03-11T00:49:51.741Z,31.37
2024-03-11T00:52:18.452Z,33.33
2024-03-11T00:54:45.655Z,35.23
2024-03-11T00:57:12.956Z,32.47
2024-03-11T00:59:43.261Z,34.20
2024-03-11T01:02:12.258Z,36.20
2024-03-11T01:04:38.978Z,32.80
2024-03-11T01:07:13.285Z,33.60
2024-03-11T01:09:47.696Z,32.50
2024-03-11T01:12:14.874Z,33.87
2024-03-11T01:14:41.611Z,35.00
2024-03-11T01:17:08.374Z,36.67
2024-03-11T01:19:35.080Z,35.90
2024-03-11T01:22:01.917Z,35.10
2024-03-11T01:24:29.555Z,36.40
2024-03-11T01:26:59.507Z,35.17
2024-03-11T01:29:26.513Z,34.60
2024-03-11T01:31:53.568Z,32.80
2024-03-11T01:34:22.731Z,33.90
2024-03-11T01:36:50.167Z,34.33
2024-03-11T01:39:26.549Z,33.90
2024-03-11T01:41:56.332Z,35.50
2024-03-11T01:44:23.091Z,35.50
2024-03-11T01:46:53.741Z,35.03
2024-03-11T01:49:22.295Z,32.90
2024-03-11T01:51:50.455Z,36.00
2024-03-11T01:54:17.427Z,35.00
2024-03-11T01:56:45.041Z,37.00
2024-03-11T01:59:12.451Z,34.60
2024-03-11T02:01:40.237Z,35.30
2024-03-11T02:04:07.130Z,32.47
2024-03-11T02:06:34.218Z,35.53
2024-03-11T02:09:01.492Z,34.27
2024-03-11T02:11:28.465Z,33.47
2024-03-11T02:13:55.278Z,34.50
2024-03-11T02:16:24.024Z,35.40
2024-03-11T02:18:52.921Z,32.80
2024-03-11T02:21:19.758Z,33.83
2024-03-11T02:23:46.598Z,37.00
2024-03-11T02:26:13.490Z,37.10
2024-03-11T02:28:40.314Z,36.77
2024-03-11T02:31:08.330Z,35.07
2024-03-11T02:33:35.109Z,37.63
2024-03-11T02:36:02.432Z,36.00
2024-03-11T02:38:29.209Z,36.80
2024-03-11T02:40:56.218Z,37.57
2024-03-11T02:43:23.176Z,36.30
2024-03-11T02:45:49.918Z,36.23
2024-03-11T02:48:16.708Z,35.77
2024-03-11T02:50:43.995Z,38.10
2024-03-11T02:53:10.778Z,39.20
2024-03-11T02:55:40.146Z,38.00
2024-03-11T02:58:07.353Z,39.00
2024-03-11T03:00:35.015Z,38.87
2024-03-11T03:03:01.884Z,36.57
2024-03-11T03:05:28.791Z,39.53
2024-03-11T03:07:55.541Z,38.67
2024-03-11T03:10:22.211Z,40.27
2024-03-11T03:12:49.040Z,39.30
2024-03-11T03:15:18.028Z,38.30
2024-03-11T03:17:44.952Z,34.90
2024-03-11T03:20:12.663Z,37.70
2024-03-11T03:22:39.784Z,36.13
2024-03-11T03:25:07.577Z,36.30
2024-03-11T03:27:34.474Z,34.67
2024-03-11T03:30:01.246Z,36.83
2024-03-11T03:32:28.748Z,34.87
2024-03-11T03:34:55.714Z,36.60
2024-03-11T03:37:23.352Z,37.07
2024-03-11T03:39:50.087Z,36.40
2024-03-11T03:42:16.773Z,36.20
2024-03-11T03:44:43.797Z,37.43
2024-03-11T03:47:11.049Z,35.07
2024-03-11T03:49:37.916Z,33.57
2024-03-11T03:52:06.357Z,31.07
2024-03-11T03:54:33.330Z,33.27
2024-03-11T03:57:00.090Z,34.03
2024-03-11T03:59:29.289Z,32.40
2024-03-11T04:01:56.586Z,30.93
2024-03-11T04:04:23.338Z,32.13
2024-03-11T04:06:50.063Z,32.63
2024-03-11T04:09:17.040Z,35.87
2024-03-11T04:11:43.877Z,39.03
2024-03-11T04:14:12.020Z,38.43
2024-03-11T04:16:38.857Z,42.67
2024-03-11T04:19:06.758Z,46.70
2024-03-11T04:21:34.342Z,45.77
2024-03-11T04:24:01.653Z,47.80
2024-03-11T04:26:30.812Z,47.80
2024-03-11T04:28:57.665Z,47.53
2024-03-11T04:31:25.196Z,47.73
2024-03-11T04:33:52.116Z,48.40
2024-03-11T04:36:20.073Z,48.17
2024-03-11T04:38:46.853Z,51.20
2024-03-11T04:41:13.669Z,50.00
2024-03-11T04:43:40.415Z,49.97
2024-03-11T04:46:10.850Z,48.90
2024-03-11T04:48:37.673Z,46.40
2024-03-11T04:51:06.025Z,48.40
2024-03-11T04:53:32.905Z,47.10
2024-03-11T04:55:59.885Z,50.87
2024-03-11T04:58:26.581Z,49.70
2024-03-11T05:00:53.382Z,49.40
2024-03-11T05:03:20.103Z,47.00
2024-03-11T05:05:47.542Z,47.47
2024-03-11T05:08:14.836Z,48.40
2024-03-11T05:10:42.155Z,50.87
2024-03-11T05:13:09.256Z,51.40
2024-03-11T05:15:36.027Z,49.73
2024-03-11T05:18:04.575Z,49.17
2024-03-11T05:20:31.497Z,51.47
2024-03-11T05:22:58.266Z,48.13
2024-03-11T05:25:25.376Z,51.77
2024-03-11T05:27:52.875Z,53.60
2024-03-11T05:30:20.210Z,52.03
2024-03-11T05:32:47.952Z,52.60
2024-03-11T05:35:15.895Z,50.07
2024-03-11T05:37:43.303Z,51.40
2024-03-11T05:40:13.234Z,55.13
2024-03-11T05:42:43.691Z,53.40
2024-03-11T05:45:14.164Z,53.30
2024-03-11T05:47:42.969Z,56.60
2024-03-11T05:50:10.555Z,56.80
2024-03-11T05:52:38.567Z,59.80
2024-03-11T05:55:12.841Z,59.97
2024-03-11T05:57:44.848Z,57.60
2024-03-11T06:00:16.555Z,57.33
2024-03-11T06:02:45.157Z,59.73
2024-03-11T06:05:12.299Z,58.30
2024-03-11T06:07:39.166Z,58.90
2024-03-11T06:10:09.104Z,58.07
2024-03-11T06:12:36.116Z,58.70
2024-03-11T06:15:03.038Z,57.47
2024-03-11T06:17:30.994Z,59.00
2024-03-11T06:19:58.891Z,58.93
2024-03-11T06:22:28.445Z,59.53
2024-03-11T06:24:55.803Z,58.33
2024-03-11T06:27:22.617Z,54.50
2024-03-11T06:29:50.631Z,55.57
2024-03-11T06:32:18.346Z,56.20
2024-03-11T06:34:45.123Z,58.37
2024-03-11T06:37:12.198Z,54.77
2024-03-11T06:39:40.728Z,56.53
2024-03-11T06:42:07.763Z,53.37
2024-03-11T06:44:40.636Z,57.23
2024-03-11T06:47:15.895Z,53.50
2024-03-11T06:49:42.709Z,53.20
2024-03-11T06:52:10.288Z,54.53
2024-03-11T06:54:37.736Z,52.27
2024-03-11T06:57:07.114Z,54.57
2024-03-11T06:59:34.604Z,54.07
2024-03-11T07:02:01.400Z,54.30
2024-03-11T07:04:28.153Z,53.20
2024-03-11T07:06:54.912Z,54.07
2024-03-11T07:09:21.630Z,56.80
2024-03-11T07:11:48.464Z,54.50
2024-03-11T07:14:16.064Z,54.93
2024-03-11T07:16:44.621Z,61.03
2024-03-11T07:19:11.902Z,67.70
2024-03-11T07:21:40.066Z,64.73
2024-03-11T07:24:07.493Z,64.57
2024-03-11T07:26:34.331Z,64.80
2024-03-11T07:29:01.562Z,73.30
2024-03-11T07:31:28.353Z,73.03
2024-03-11T07:33:55.457Z,69.20
2024-03-11T07:36:22.869Z,72.23
2024-03-11T07:38:49.832Z,72.60
2024-03-11T07:41:16.701Z,77.70
2024-03-11T07:43:43.508Z,76.90
2024-03-11T07:46:12.445Z,77.67
2024-03-11T07:48:40.451Z,74.27
2024-03-11T07:51:09.026Z,72.37
2024-03-11T07:53:36.734Z,74.77
2024-03-11T07:56:05.516Z,74.00
2024-03-11T07:58:35.855Z,70.47
2024-03-11T08:01:03.427Z,58.10
2024-03-11T08:03:30.815Z,54.60
2024-03-11T08:05:57.625Z,44.33
2024-03-11T08:08:25.642Z,43.07
2024-03-11T08:10:52.497Z,40.87
2024-03-11T08:13:19.868Z,37.37
2024-03-11T08:15:46.769Z,37.20
2024-03-11T08:18:14.597Z,36.17
2024-03-11T08:20:41.676Z,24.87
2024-03-11T08:23:09.315Z,17.73
2024-03-11T08:25:36.742Z,18.87
2024-03-11T08:28:03.780Z,15.47
2024-03-11T08:30:32.050Z,11.33
2024-03-11T08:32:59.334Z,12.87
2024-03-11T08:35:26.556Z,12.13
2024-03-11T08:37:53.752Z,10.10
2024-03-11T08:40:22.982Z,9.00
2024-03-11T08:42:51.337Z,8.30
2024-03-11T08:45:24.181Z,9.07
2024-03-11T08:47:52.049Z,10.10
2024-03-11T08:50:19.026Z,10.20
2024-03-11T08:52:49.701Z,9.20
2024-03-11T08:55:17.576Z,9.30
2024-03-11T08:57:46.667Z,9.03
2024-03-11T09:00:16.933Z,8.77
2024-03-11T09:02:45.851Z,8.30
2024-03-11T09:05:19.862Z,7.30
2024-03-11T09:07:48.016Z,6.40
2024-03-11T09:10:15.902Z,5.30
2024-03-11T09:12:43.686Z,5.63
2024-03-11T09:15:17.773Z,5.00
2024-03-11T09:17:49.506Z,5.10
2024-03-11T09:20:16.882Z,4.70
2024-03-11T09:22:47.075Z,4.83
2024-03-11T09:25:25.836Z,5.80
2024-03-11T09:28:02.652Z,5.50
2024-03-11T09:30:32.696Z,5.43
2024-03-11T09:32:59.766Z,4.63
2024-03-11T09:35:26.561Z,5.63
2024-03-11T09:37:53.461Z,5.77
2024-03-11T09:40:25.513Z,4.90
2024-03-11T09:42:56.695Z,4.23
2024-03-11T09:45:27.370Z,4.10
2024-03-11T09:47:58.636Z,3.10
2024-03-11T09:50:35.197Z,3.30
2024-03-11T09:53:05.434Z,2.50
2024-03-11T09:55:33.065Z,3.00
2024-03-11T09:58:13.693Z,2.40
2024-03-11T10:00:50.450Z,2.30
2024-03-11T10:03:23.728Z,1.93
2024-03-11T10:06:01.096Z,2.30
2024-03-11T10:08:31.074Z,1.90
2024-03-11T10:11:14.182Z,1.60
2024-03-11T10:13:42.104Z,1.50
2024-03-11T10:16:20.142Z,1.33
2024-03-11T10:18:54.071Z,1.70
2024-03-11T10:21:21.194Z,1.47
2024-03-11T10:23:51.818Z,2.20
2024-03-11T10:26:19.021Z,2.07
2024-03-11T10:28:50.674Z,2.27
2024-03-11T10:31:25.322Z,1.47
2024-03-11T10:33:57.597Z,1.33
2024-03-11T10:36:26.419Z,1.80
2024-03-11T10:38:58.631Z,1.73
2024-03-11T10:41:26.291Z,1.67
2024-03-11T10:43:56.220Z,1.63
2024-03-11T10:46:25.840Z,1.70
2024-03-11T10:48:53.092Z,1.30
2024-03-11T10:51:22.713Z,1.43
2024-03-11T10:53:54.791Z,1.63
2024-03-11T10:56:27.174Z,1.30
2024-03-11T10:58:57.458Z,1.87
2024-03-11T11:01:34.529Z,1.20
2024-03-11T11:04:14.791Z,2.37
2024-03-11T11:06:46.048Z,2.47
2024-03-11T11:09:14.059Z,1.97
2024-03-11T11:11:52.314Z,2.60
2024-03-11T11:14:19.697Z,2.20
2024-03-11T11:16:46.879Z,1.80
2024-03-11T11:19:15.515Z,1.80
2024-03-11T11:21:44.657Z,2.00
2024-03-11T11:24:34.091Z,1.90
2024-03-11T11:27:07.069Z,1.60
2024-03-11T11:29:34.421Z,2.10
2024-03-11T11:32:04.299Z,1.97
2024-03-11T11:34:46.026Z,1.67
2024-03-11T11:37:23.331Z,1.73
2024-03-11T11:39:55.642Z,1.67
2024-03-11T11:42:36.690Z,1.50
2024-03-11T11:45:07.464Z,1.93
2024-03-11T11:47:34.875Z,3.00
2024-03-11T11:50:02.430Z,1.97
2024-03-11T11:52:30.223Z,2.10
2024-03-11T11:54:57.545Z,1.37
2024-03-11T11:57:25.976Z,2.30
2024-03-11T11:59:56.585Z,1.60
2024-03-11T12:02:29.247Z,1.40
2024-03-11T12:04:58.325Z,2.03
2024-03-11T12:07:26.403Z,1.53
2024-03-11T12:09:55.869Z,1.43
2024-03-11T12:12:31.264Z,0.97
2024-03-11T12:15:01.611Z,1.20
2024-03-11T12:17:31.018Z,1.63
2024-03-11T12:20:25.353Z,1.10
2024-03-11T12:22:53.545Z,0.93
2024-03-11T12:25:20.371Z,1.40
2024-03-11T12:27:59.950Z,1.20
2024-03-11T12:30:39.522Z,1.07
2024-03-11T12:33:09.886Z,1.33
2024-03-11T12:35:39.180Z,1.20
2024-03-11T12:38:08.355Z,1.07
2024-03-11T12:40:54.160Z,1.60
2024-03-11T12:43:31.036Z,1.23
2024-03-11T12:46:04.309Z,1.20
2024-03-11T12:48:32.737Z,1.50
2024-03-11T12:51:01.889Z,1.30
2024-03-11T12:53:30.678Z,1.20
2024-03-11T12:56:14.088Z,1.40
2024-03-11T12:58:41.390Z,1.70
2024-03-11T13:01:17.433Z,1.20
2024-03-11T13:03:47.597Z,1.10
2024-03-11T13:06:19.520Z,1.70
2024-03-11T13:08:46.652Z,1.20
2024-03-11T13:11:17.490Z,2.03
2024-03-11T13:13:44.570Z,1.70
2024-03-11T13:16:18.063Z,1.87
2024-03-11T13:18:48.792Z,2.23
2024-03-11T13:21:20.381Z,2.33
2024-03-11T13:23:48.886Z,1.80
2024-03-11T13:26:17.237Z,1.30
2024-03-11T13:28:44.463Z,2.30
2024-03-11T13:31:13.891Z,1.90
2024-03-11T13:33:45.674Z,1.93
2024-03-11T13:36:14.031Z,1.73
2024-03-11T13:38:42.184Z,1.50
2024-03-11T13:41:09.678Z,1.50
2024-03-11T13:43:40.282Z,1.60
2024-03-11T13:46:07.149Z,1.50
2024-03-11T13:48:33.907Z,1.57
2024-03-11T13:51:00.728Z,1.63
2024-03-11T13:53:29.627Z,1.10
2024-03-11T13:55:57.081Z,1.70
2024-03-11T13:58:25.549Z,1.87
2024-03-11T14:00:53.150Z,1.17
2024-03-11T14:03:20.618Z,0.90
2024-03-11T14:05:47.821Z,1.60
2024-03-11T14:08:14.877Z,2.40
2024-03-11T14:10:43.918Z,0.90
2024-03-11T14:13:10.781Z,1.10
2024-03-11T14:15:37.862Z,1.37
2024-03-11T14:18:06.954Z,1.37
2024-03-11T14:20:34.012Z,1.37
2024-03-11T14:23:01.773Z,1.80
2024-03-11T14:25:32.443Z,1.80
2024-03-11T14:28:00.226Z,1.70
2024-03-11T14:30:35.639Z,1.23
2024-03-11T14:33:08.414Z,2.47
2024-03-11T14:35:36.823Z,2.60
2024-03-11T14:38:03.620Z,2.83
2024-03-11T14:40:30.708Z,2.67
2024-03-11T14:43:01.978Z,2.67
2024-03-11T14:45:33.475Z,2.50
2024-03-11T14:48:02.518Z,2.20
2024-03-11T14:50:30.706Z,2.50
2024-03-11T14:52:58.553Z,2.30
2024-03-11T14:55:37.935Z,2.20
2024-03-11T14:58:09.218Z,1.60
2024-03-11T15:00:50.310Z,2.30
2024-03-11T15:03:19.158Z,2.33
2024-03-11T15:05:46.814Z,2.37
2024-03-11T15:08:15.184Z,1.83
2024-03-11T15:10:43.964Z,3.30
2024-03-11T15:13:12.256Z,2.60
2024-03-11T15:15:42.368Z,2.50
2024-03-11T15:18:15.958Z,2.47
2024-03-11T15:20:49.940Z,2.87
2024-03-11T15:23:25.451Z,2.60
2024-03-11T15:26:00.130Z,3.30
2024-03-11T15:28:27.560Z,4.07
2024-03-11T15:30:55.972Z,4.30
2024-03-11T15:33:24.366Z,3.90
2024-03-11T15:35:52.053Z,4.50
2024-03-11T15:38:23.194Z,4.77
2024-03-11T15:40:51.079Z,3.47
2024-03-11T15:43:18.433Z,3.37
2024-03-11T15:45:46.983Z,5.03
2024-03-11T15:48:14.871Z,4.30
2024-03-11T15:50:42.102Z,3.60
2024-03-11T15:53:14.280Z,4.47
2024-03-11T15:55:41.372Z,3.43
2024-03-11T15:58:08.621Z,4.23
2024-03-11T16:00:37.154Z,4.50
2024-03-11T16:03:10.027Z,1.43
2024-03-11T16:05:41.051Z,1.50
2024-03-11T16:08:15.278Z,1.00
2024-03-11T16:10:43.937Z,2.30
2024-03-11T16:13:14.152Z,1.77
2024-03-11T16:15:41.050Z,2.20
2024-03-11T16:18:08.600Z,2.07
2024-03-11T16:20:35.512Z,3.67
2024-03-11T16:23:02.198Z,2.70
2024-03-11T16:25:30.626Z,2.60
2024-03-11T16:27:59.945Z,2.60
2024-03-11T16:30:27.378Z,3.57
2024-03-11T16:32:56.820Z,2.30
2024-03-11T16:35:26.535Z,2.73
2024-03-11T16:37:54.695Z,4.03
2024-03-11T16:40:29.127Z,6.60
2024-03-11T16:43:10.436Z,3.80
2024-03-11T16:45:38.418Z,3.53
2024-03-11T16:48:07.070Z,3.97
2024-03-11T16:50:34.063Z,4.50
2024-03-11T16:53:07.199Z,5.03
2024-03-11T16:55:34.119Z,4.13
2024-03-11T16:58:02.097Z,5.00
2024-03-11T17:00:34.984Z,4.07
2024-03-11T17:03:02.565Z,4.57
2024-03-11T17:05:31.536Z,4.20
2024-03-11T17:07:59.225Z,4.80
2024-03-11T17:10:28.795Z,3.90
2024-03-11T17:12:57.081Z,4.13
2024-03-11T17:15:31.446Z,4.60
2024-03-11T17:18:00.678Z,5.33
2024-03-11T17:20:39.425Z,5.10
2024-03-11T17:23:09.177Z,6.27
2024-03-11T17:25:37.559Z,8.40
2024-03-11T17:28:07.436Z,7.30
2024-03-11T17:30:35.530Z,8.20
2024-03-11T17:33:15.084Z,7.17
2024-03-11T17:35:46.389Z,6.30
2024-03-11T17:38:14.206Z,6.23
2024-03-11T17:40:43.153Z,5.80
2024-03-11T17:43:10.617Z,8.33
2024-03-11T17:45:40.400Z,6.03
2024-03-11T17:48:08.997Z,5.90
2024-03-11T17:50:36.836Z,5.80
2024-03-11T17:53:04.607Z,6.30
2024-03-11T17:55:32.214Z,7.00
2024-03-11T17:58:01.424Z,8.23
2024-03-11T18:00:29.478Z,9.43
2024-03-11T18:02:58.450Z,8.03
2024-03-11T18:05:27.404Z,7.87
2024-03-11T18:07:55.220Z,7.70
2024-03-11T18:10:26.966Z,13.10
2024-03-11T18:12:57.577Z,9.73
2024-03-11T18:15:25.325Z,8.63
2024-03-11T18:17:54.056Z,9.37
2024-03-11T18:20:24.647Z,10.87
2024-03-11T18:22:54.827Z,9.63
2024-03-11T18:25:26.168Z,9.80
2024-03-11T18:28:02.824Z,10.10
2024-03-11T18:30:29.844Z,10.13
2024-03-11T18:32:57.836Z,10.67
2024-03-11T18:35:26.700Z,11.30
2024-03-11T18:38:00.456Z,11.23
2024-03-11T18:40:27.411Z,12.70
2024-03-11T18:42:55.165Z,10.93
2024-03-11T18:45:27.270Z,10.40
2024-03-11T18:47:56.119Z,11.30
2024-03-11T18:50:25.125Z,11.87
2024-03-11T18:52:59.568Z,11.47
2024-03-11T18:55:30.666Z,12.00
2024-03-11T18:57:58.646Z,12.53
2024-03-11T19:00:29.541Z,11.60
2024-03-11T19:02:58.084Z,12.17
2024-03-11T19:05:25.475Z,13.57
2024-03-11T19:07:52.491Z,16.60
2024-03-11T19:10:23.286Z,15.87
2024-03-11T19:12:52.069Z,13.50
2024-03-11T19:15:21.186Z,12.83
2024-03-11T19:17:48.922Z,13.80
2024-03-11T19:20:17.918Z,15.10
2024-03-11T19:22:46.679Z,17.10
2024-03-11T19:25:19.682Z,14.90
2024-03-11T19:27:47.447Z,14.90
2024-03-11T19:30:14.818Z,13.57
2024-03-11T19:32:43.003Z,14.13
2024-03-11T19:35:17.588Z,15.60
2024-03-11T19:38:27.049Z,15.50
2024-03-11T19:41:13.583Z,15.67
2024-03-11T19:43:46.220Z,16.87
2024-03-11T19:46:29.779Z,17.17
2024-03-11T19:49:37.031Z,13.83
2024-03-11T19:52:55.869Z,15.47
2024-03-11T19:55:56.686Z,13.83
2024-03-11T19:59:14.463Z,14.83
2024-03-11T20:02:04.862Z,14.70
2024-03-11T20:04:44.000Z,14.60
2024-03-11T20:07:55.264Z,15.67
2024-03-11T20:10:41.828Z,15.47
2024-03-11T20:13:32.359Z,15.50
2024-03-11T20:16:20.436Z,15.57
2024-03-11T20:19:18.471Z,15.67
2024-03-11T20:22:11.385Z,16.63
2024-03-11T20:25:13.955Z,18.43
2024-03-11T20:28:02.105Z,17.90
2024-03-11T20:30:42.098Z,16.37
2024-03-11T20:33:10.495Z,16.63
2024-03-11T20:35:38.665Z,16.00
2024-03-11T20:38:05.451Z,18.23
2024-03-11T20:40:34.195Z,18.63
2024-03-11T20:43:01.248Z,17.63
2024-03-11T20:45:28.347Z,17.13
2024-03-11T20:47:55.522Z,18.30
2024-03-11T20:50:22.364Z,17.20
2024-03-11T20:52:49.659Z,16.60
2024-03-11T20:55:16.619Z,15.50
2024-03-11T20:57:44.302Z,13.90
2024-03-11T21:00:17.591Z,13.30
2024-03-11T21:02:46.800Z,13.17
2024-03-11T21:05:16.726Z,11.90
2024-03-11T21:07:43.644Z,8.90
2024-03-11T21:10:11.003Z,8.80
2024-03-11T21:12:37.951Z,7.13
2024-03-11T21:15:12.746Z,7.57
2024-03-11T21:17:42.626Z,6.97
2024-03-11T21:20:24.353Z,6.47
2024-03-11T21:22:53.625Z,6.20
2024-03-11T21:25:28.130Z,5.87
2024-03-11T21:27:56.623Z,6.43
2024-03-11T21:30:24.905Z,6.50
2024-03-11T21:32:52.221Z,5.77
2024-03-11T21:35:20.736Z,5.80
2024-03-11T21:37:47.985Z,7.10
2024-03-11T21:40:15.541Z,6.47
2024-03-11T21:42:45.182Z,6.40
2024-03-11T21:45:11.947Z,5.40
2024-03-11T21:47:38.981Z,6.10
2024-03-11T21:50:06.508Z,6.10
2024-03-11T21:52:33.936Z,5.90
2024-03-11T21:55:01.499Z,6.30
2024-03-11T21:57:29.000Z,5.80
2024-03-11T21:59:57.813Z,5.80
2024-03-11T22:02:25.945Z,5.27
2024-03-11T22:04:56.515Z,5.97
2024-03-11T22:07:25.684Z,6.23
2024-03-11T22:09:56.962Z,5.10
2024-03-11T22:12:23.949Z,5.90
2024-03-11T22:14:50.794Z,5.30
2024-03-11T22:17:17.804Z,5.37
2024-03-11T22:19:45.609Z,5.80
2024-03-11T22:22:12.908Z,5.53
2024-03-11T22:24:42.820Z,4.93
2024-03-11T22:27:11.443Z,5.73
2024-03-11T22:29:38.172Z,5.13
2024-03-11T22:32:08.145Z,5.80
2024-03-11T22:34:34.829Z,6.50
2024-03-11T22:37:01.985Z,5.43
2024-03-11T22:39:29.183Z,4.70
2024-03-11T22:42:12.632Z,5.50
2024-03-11T22:44:40.247Z,4.70
2024-03-11T22:47:10.120Z,4.70
2024-03-11T22:49:40.402Z,5.00
2024-03-11T22:52:08.028Z,4.40
2024-03-11T22:54:34.989Z,4.77
2024-03-11T22:57:10.414Z,6.10
2024-03-11T22:59:39.464Z,5.33
2024-03-11T23:02:09.342Z,5.17
2024-03-11T23:04:36.102Z,5.70
2024-03-11T23:07:03.282Z,5.40
2024-03-11T23:09:30.405Z,7.13
2024-03-11T23:11:57.271Z,5.80
2024-03-11T23:14:26.351Z,5.80
2024-03-11T23:16:53.106Z,5.63
2024-03-11T23:19:19.797Z,6.20
2024-03-11T23:21:47.829Z,6.47
2024-03-11T23:24:15.243Z,6.30
2024-03-11T23:26:41.953Z,6.33
2024-03-11T23:29:11.403Z,6.40
2024-03-11T23:31:38.108Z,6.77
2024-03-11T23:34:04.992Z,6.10
2024-03-11T23:36:31.871Z,6.83
2024-03-11T23:38:59.235Z,6.87
2024-03-11T23:41:28.011Z,8.93
2024-03-11T23:43:55.336Z,11.37
2024-03-11T23:46:22.690Z,14.13
2024-03-11T23:48:49.537Z,14.27
2024-03-11T23:51:17.116Z,14.53
2024-03-11T23:53:46.970Z,12.87
2024-03-11T23:56:15.781Z,10.83
2024-03-11T23:58:42.953Z,11.80
